sensor_id;sensor_type;location;lat;lon;timestamp;pressure;altitude;pressure_sealevel;temperature;humidity
19676;BME280;39539;52.202;9.876;2023-12-22T00:02:03;98545.34;;;4.56;100.00
19676;BME280;39539;52.202;9.876;2023-12-22T00:04:28;98523.34;;;4.50;100.00
19676;BME280;39539;52.202;9.876;2023-12-22T00:06:53;98539.69;;;4.53;100.00
19676;BME280;39539;52.202;9.876;2023-12-22T00:09:20;98538.84;;;4.59;100.00
19676;BME280;39539;52.202;9.876;2023-12-22T00:11:45;98545.91;;;4.58;100.00
19676;BME280;39539;52.202;9.876;2023-12-22T00:14:11;98557.09;;;4.54;100.00
19676;BME280;39539;52.202;9.876;2023-12-22T00:16:37;98542.50;;;4.39;100.00
19676;BME280;39539;52.202;9.876;2023-12-22T00:19:03;98513.59;;;4.33;100.00
19676;BME280;39539;52.202;9.876;2023-12-22T00:21:28;98521.50;;;4.33;100.00
19676;BME280;39539;52.202;9.876;2023-12-22T00:23:54;98525.97;;;4.14;100.00
19676;BME280;39539;52.202;9.876;2023-12-22T00:26:19;98538.16;;;4.08;100.00
19676;BME280;39539;52.202;9.876;2023-12-22T00:28:44;98520.50;;;3.90;100.00
19676;BME280;39539;52.202;9.876;2023-12-22T00:31:10;98535.72;;;3.88;100.00
19676;BME280;39539;52.202;9.876;2023-12-22T00:33:37;98527.25;;;3.86;100.00
19676;BME280;39539;52.202;9.876;2023-12-22T00:36:03;98538.63;;;3.98;100.00
19676;BME280;39539;52.202;9.876;2023-12-22T00:38:28;98540.63;;;4.03;100.00
19676;BME280;39539;52.202;9.876;2023-12-22T00:40:54;98531.88;;;4.09;100.00
19676;BME280;39539;52.202;9.876;2023-12-22T00:43:19;98552.31;;;4.07;100.00
19676;BME280;39539;52.202;9.876;2023-12-22T00:45:44;98520.41;;;4.03;100.00
19676;BME280;39539;52.202;9.876;2023-12-22T00:48:09;98524.84;;;4.03;100.00
19676;BME280;39539;52.202;9.876;2023-12-22T00:50:35;98523.63;;;4.05;100.00
19676;BME280;39539;52.202;9.876;2023-12-22T00:53:00;98548.16;;;4.18;100.00
19676;BME280;39539;52.202;9.876;2023-12-22T00:55:27;98540.88;;;4.20;100.00
19676;BME280;39539;52.202;9.876;2023-12-22T00:57:52;98547.38;;;4.17;100.00
19676;BME280;39539;52.202;9.876;2023-12-22T01:00:18;98529.16;;;4.16;100.00
19676;BME280;39539;52.202;9.876;2023-12-22T01:02:43;98540.59;;;4.28;100.00
19676;BME280;39539;52.202;9.876;2023-12-22T01:05:09;98550.34;;;4.21;100.00
19676;BME280;39539;52.202;9.876;2023-12-22T01:07:35;98576.50;;;4.16;100.00
19676;BME280;39539;52.202;9.876;2023-12-22T01:10:00;98552.25;;;4.14;100.00
19676;BME280;39539;52.202;9.876;2023-12-22T01:12:27;98574.25;;;4.19;100.00
19676;BME280;39539;52.202;9.876;2023-12-22T01:14:54;98567.53;;;4.23;100.00
19676;BME280;39539;52.202;9.876;2023-12-22T01:17:20;98578.84;;;4.24;100.00
19676;BME280;39539;52.202;9.876;2023-12-22T01:19:46;98569.50;;;4.28;100.00
19676;BME280;39539;52.202;9.876;2023-12-22T01:22:11;98576.81;;;4.26;100.00
19676;BME280;39539;52.202;9.876;2023-12-22T01:24:37;98562.50;;;4.22;100.00
19676;BME280;39539;52.202;9.876;2023-12-22T01:27:05;98566.44;;;4.31;100.00
19676;BME280;39539;52.202;9.876;2023-12-22T01:29:30;98579.16;;;4.34;100.00
19676;BME280;39539;52.202;9.876;2023-12-22T01:31:55;98564.69;;;4.25;100.00
19676;BME280;39539;52.202;9.876;2023-12-22T01:34:20;98577.97;;;4.30;100.00
19676;BME280;39539;52.202;9.876;2023-12-22T01:36:46;98560.59;;;4.29;100.00
19676;BME280;39539;52.202;9.876;2023-12-22T01:39:11;98577.91;;;4.37;100.00
19676;BME280;39539;52.202;9.876;2023-12-22T01:41:37;98585.00;;;4.36;100.00
19676;BME280;39539;52.202;9.876;2023-12-22T01:44:02;98570.63;;;4.39;100.00
19676;BME280;39539;52.202;9.876;2023-12-22T01:46:27;98575.44;;;4.42;100.00
19676;BME280;39539;52.202;9.876;2023-12-22T01:48:53;98583.25;;;4.48;100.00
19676;BME280;39539;52.202;9.876;2023-12-22T01:51:18;98571.69;;;4.49;100.00
19676;BME280;39539;52.202;9.876;2023-12-22T01:53:45;98585.44;;;4.52;100.00
19676;BME280;39539;52.202;9.876;2023-12-22T01:56:11;98573.75;;;4.47;100.00
19676;BME280;39539;52.202;9.876;2023-12-22T01:58:37;98595.53;;;4.55;100.00
19676;BME280;39539;52.202;9.876;2023-12-22T02:01:03;98591.72;;;4.50;100.00
19676;BME280;39539;52.202;9.876;2023-12-22T02:03:29;98579.75;;;4.36;100.00
19676;BME280;39539;52.202;9.876;2023-12-22T02:05:55;98582.50;;;4.41;100.00
19676;BME280;39539;52.202;9.876;2023-12-22T02:08:22;98579.75;;;4.36;100.00
19676;BME280;39539;52.202;9.876;2023-12-22T02:10:49;98597.91;;;4.38;100.00
19676;BME280;39539;52.202;9.876;2023-12-22T02:13:14;98593.09;;;4.35;100.00
19676;BME280;39539;52.202;9.876;2023-12-22T02:15:40;98561.03;;;4.26;100.00
19676;BME280;39539;52.202;9.876;2023-12-22T02:18:21;98588.44;;;4.37;100.00
19676;BME280;39539;52.202;9.876;2023-12-22T02:20:47;98597.13;;;4.37;100.00
19676;BME280;39539;52.202;9.876;2023-12-22T02:23:12;98596.09;;;4.38;100.00
19676;BME280;39539;52.202;9.876;2023-12-22T02:25:38;98583.81;;;4.32;100.00
19676;BME280;39539;52.202;9.876;2023-12-22T02:28:23;98586.69;;;4.31;100.00
19676;BME280;39539;52.202;9.876;2023-12-22T02:30:56;98574.16;;;4.44;100.00
19676;BME280;39539;52.202;9.876;2023-12-22T02:33:24;98584.78;;;4.38;100.00
19676;BME280;39539;52.202;9.876;2023-12-22T02:35:53;98588.47;;;4.30;100.00
19676;BME280;39539;52.202;9.876;2023-12-22T02:38:24;98586.56;;;4.19;100.00
19676;BME280;39539;52.202;9.876;2023-12-22T02:40:51;98598.22;;;4.04;100.00
19676;BME280;39539;52.202;9.876;2023-12-22T02:43:16;98592.59;;;4.01;100.00
19676;BME280;39539;52.202;9.876;2023-12-22T02:45:41;98592.41;;;4.02;100.00
19676;BME280;39539;52.202;9.876;2023-12-22T02:48:07;98592.00;;;3.99;100.00
19676;BME280;39539;52.202;9.876;2023-12-22T02:50:32;98596.25;;;4.00;100.00
19676;BME280;39539;52.202;9.876;2023-12-22T02:52:57;98582.94;;;3.95;100.00
19676;BME280;39539;52.202;9.876;2023-12-22T02:55:23;98581.56;;;3.92;100.00
19676;BME280;39539;52.202;9.876;2023-12-22T02:57:48;98581.81;;;3.84;100.00
19676;BME280;39539;52.202;9.876;2023-12-22T03:00:14;98578.81;;;3.80;100.00
19676;BME280;39539;52.202;9.876;2023-12-22T03:02:39;98593.97;;;3.85;100.00
19676;BME280;39539;52.202;9.876;2023-12-22T03:05:05;98586.66;;;3.87;100.00
19676;BME280;39539;52.202;9.876;2023-12-22T03:07:30;98583.91;;;4.00;100.00
19676;BME280;39539;52.202;9.876;2023-12-22T03:09:56;98558.78;;;4.04;100.00
19676;BME280;39539;52.202;9.876;2023-12-22T03:12:21;98575.91;;;4.14;100.00
19676;BME280;39539;52.202;9.876;2023-12-22T03:14:46;98576.72;;;4.14;100.00
19676;BME280;39539;52.202;9.876;2023-12-22T03:17:11;98563.22;;;4.11;100.00
19676;BME280;39539;52.202;9.876;2023-12-22T03:19:37;98578.38;;;4.09;100.00
19676;BME280;39539;52.202;9.876;2023-12-22T03:22:02;98555.81;;;4.01;100.00
19676;BME280;39539;52.202;9.876;2023-12-22T03:24:28;98564.19;;;3.91;100.00
19676;BME280;39539;52.202;9.876;2023-12-22T03:26:54;98550.88;;;3.86;100.00
19676;BME280;39539;52.202;9.876;2023-12-22T03:29:19;98553.19;;;3.76;100.00
19676;BME280;39539;52.202;9.876;2023-12-22T03:31:45;98565.47;;;3.82;100.00
19676;BME280;39539;52.202;9.876;2023-12-22T03:34:10;98569.13;;;3.81;100.00
19676;BME280;39539;52.202;9.876;2023-12-22T03:36:36;98585.16;;;3.98;100.00
19676;BME280;39539;52.202;9.876;2023-12-22T03:39:02;98581.03;;;4.09;100.00
19676;BME280;39539;52.202;9.876;2023-12-22T03:41:28;98574.56;;;4.04;100.00
19676;BME280;39539;52.202;9.876;2023-12-22T03:43:57;98574.56;;;4.04;100.00
19676;BME280;39539;52.202;9.876;2023-12-22T03:46:23;98590.22;;;4.18;100.00
19676;BME280;39539;52.202;9.876;2023-12-22T03:48:50;98573.72;;;4.11;100.00
19676;BME280;39539;52.202;9.876;2023-12-22T03:51:15;98582.34;;;4.18;100.00
19676;BME280;39539;52.202;9.876;2023-12-22T03:53:41;98575.31;;;4.12;100.00
19676;BME280;39539;52.202;9.876;2023-12-22T03:56:08;98545.97;;;3.96;100.00
19676;BME280;39539;52.202;9.876;2023-12-22T03:58:34;98564.81;;;4.12;100.00
19676;BME280;39539;52.202;9.876;2023-12-22T04:00:59;98559.66;;;3.98;100.00
19676;BME280;39539;52.202;9.876;2023-12-22T04:03:25;98544.50;;;4.00;100.00
19676;BME280;39539;52.202;9.876;2023-12-22T04:05:51;98567.72;;;4.03;100.00
19676;BME280;39539;52.202;9.876;2023-12-22T04:08:16;98581.63;;;4.11;100.00
19676;BME280;39539;52.202;9.876;2023-12-22T04:10:41;98564.44;;;4.08;100.00
19676;BME280;39539;52.202;9.876;2023-12-22T04:13:08;98547.84;;;4.08;100.00
19676;BME280;39539;52.202;9.876;2023-12-22T04:15:33;98562.78;;;4.14;100.00
19676;BME280;39539;52.202;9.876;2023-12-22T04:17:59;98556.31;;;4.10;100.00
19676;BME280;39539;52.202;9.876;2023-12-22T04:20:24;98579.97;;;4.10;100.00
19676;BME280;39539;52.202;9.876;2023-12-22T04:22:49;98575.31;;;4.12;100.00
19676;BME280;39539;52.202;9.876;2023-12-22T04:25:15;98562.34;;;4.17;100.00
19676;BME280;39539;52.202;9.876;2023-12-22T04:27:41;98566.94;;;4.21;100.00
19676;BME280;39539;52.202;9.876;2023-12-22T04:30:07;98548.16;;;4.18;100.00
19676;BME280;39539;52.202;9.876;2023-12-22T04:32:33;98554.38;;;4.23;100.00
19676;BME280;39539;52.202;9.876;2023-12-22T04:34:58;98543.84;;;4.23;100.00
19676;BME280;39539;52.202;9.876;2023-12-22T04:37:23;98550.16;;;4.22;100.00
19676;BME280;39539;52.202;9.876;2023-12-22T04:39:49;98544.81;;;4.29;100.00
19676;BME280;39539;52.202;9.876;2023-12-22T04:42:16;98549.19;;;4.35;100.00
19676;BME280;39539;52.202;9.876;2023-12-22T04:44:41;98547.16;;;4.37;100.00
19676;BME280;39539;52.202;9.876;2023-12-22T04:47:06;98525.16;;;4.32;100.00
19676;BME280;39539;52.202;9.876;2023-12-22T04:49:32;98562.94;;;4.37;100.00
19676;BME280;39539;52.202;9.876;2023-12-22T04:51:57;98550.38;;;4.39;100.00
19676;BME280;39539;52.202;9.876;2023-12-22T04:54:22;98541.97;;;4.31;100.00
19676;BME280;39539;52.202;9.876;2023-12-22T04:56:48;98547.75;;;4.39;100.00
19676;BME280;39539;52.202;9.876;2023-12-22T04:59:13;98530.94;;;4.40;100.00
19676;BME280;39539;52.202;9.876;2023-12-22T05:01:38;98533.13;;;4.43;100.00
19676;BME280;39539;52.202;9.876;2023-12-22T05:04:04;98539.63;;;4.41;100.00
19676;BME280;39539;52.202;9.876;2023-12-22T05:06:29;98550.94;;;4.41;100.00
19676;BME280;39539;52.202;9.876;2023-12-22T05:08:55;98544.97;;;4.34;100.00
19676;BME280;39539;52.202;9.876;2023-12-22T05:11:21;98558.97;;;4.46;100.00
19676;BME280;39539;52.202;9.876;2023-12-22T05:13:47;98564.69;;;4.43;100.00
19676;BME280;39539;52.202;9.876;2023-12-22T05:16:12;98557.53;;;4.32;100.00
19676;BME280;39539;52.202;9.876;2023-12-22T05:18:38;98566.22;;;4.33;100.00
19676;BME280;39539;52.202;9.876;2023-12-22T05:21:04;98564.97;;;4.35;100.00
19676;BME280;39539;52.202;9.876;2023-12-22T05:23:30;98560.91;;;4.39;100.00
19676;BME280;39539;52.202;9.876;2023-12-22T05:25:56;98567.44;;;4.30;100.00
19676;BME280;39539;52.202;9.876;2023-12-22T05:28:21;98566.94;;;4.21;100.00
19676;BME280;39539;52.202;9.876;2023-12-22T05:30:48;98551.50;;;4.07;100.00
19676;BME280;39539;52.202;9.876;2023-12-22T05:33:13;98563.31;;;3.97;100.00
19676;BME280;39539;52.202;9.876;2023-12-22T05:35:38;98578.06;;;3.98;100.00
19676;BME280;39539;52.202;9.876;2023-12-22T05:38:04;98570.50;;;4.09;100.00
19676;BME280;39539;52.202;9.876;2023-12-22T05:40:31;98574.72;;;4.10;100.00
19676;BME280;39539;52.202;9.876;2023-12-22T05:42:56;98588.47;;;4.12;100.00
19676;BME280;39539;52.202;9.876;2023-12-22T05:45:22;98583.81;;;4.14;100.00
19676;BME280;39539;52.202;9.876;2023-12-22T05:47:47;98581.19;;;4.14;100.00
19676;BME280;39539;52.202;9.876;2023-12-22T05:50:13;98583.81;;;4.14;100.00
19676;BME280;39539;52.202;9.876;2023-12-22T05:52:38;98592.84;;;4.18;100.00
19676;BME280;39539;52.202;9.876;2023-12-22T05:55:04;98590.03;;;4.19;100.00
19676;BME280;39539;52.202;9.876;2023-12-22T05:57:29;98584.31;;;4.22;100.00
19676;BME280;39539;52.202;9.876;2023-12-22T05:59:54;98600.81;;;4.30;100.00
19676;BME280;39539;52.202;9.876;2023-12-22T06:02:20;98593.38;;;4.26;100.00
19676;BME280;39539;52.202;9.876;2023-12-22T06:04:45;98608.56;;;4.24;100.00
19676;BME280;39539;52.202;9.876;2023-12-22T06:07:11;98617.56;;;4.35;100.00
19676;BME280;39539;52.202;9.876;2023-12-22T06:09:36;98631.31;;;4.37;100.00
19676;BME280;39539;52.202;9.876;2023-12-22T06:12:01;98623.41;;;4.37;100.00
19676;BME280;39539;52.202;9.876;2023-12-22T06:14:27;98630.50;;;4.37;100.00
19676;BME280;39539;52.202;9.876;2023-12-22T06:16:52;98617.88;;;4.45;100.00
19676;BME280;39539;52.202;9.876;2023-12-22T06:19:19;98631.25;;;4.44;100.00
19676;BME280;39539;52.202;9.876;2023-12-22T06:21:44;98628.47;;;4.39;100.00
19676;BME280;39539;52.202;9.876;2023-12-22T06:24:09;98637.81;;;4.35;100.00
19676;BME280;39539;52.202;9.876;2023-12-22T06:26:35;98613.53;;;4.33;100.00
19676;BME280;39539;52.202;9.876;2023-12-22T06:29:00;98612.53;;;4.34;100.00
19676;BME280;39539;52.202;9.876;2023-12-22T06:31:25;98648.41;;;4.28;100.00
19676;BME280;39539;52.202;9.876;2023-12-22T06:33:51;98647.81;;;4.26;100.00
19676;BME280;39539;52.202;9.876;2023-12-22T06:36:21;98656.81;;;4.12;100.00
19676;BME280;39539;52.202;9.876;2023-12-22T06:38:47;98715.34;;;4.00;100.00
19676;BME280;39539;52.202;9.876;2023-12-22T06:41:23;98707.03;;;3.72;100.00
19676;BME280;39539;52.202;9.876;2023-12-22T06:43:49;98689.59;;;3.39;100.00
19676;BME280;39539;52.202;9.876;2023-12-22T06:46:18;98682.63;;;3.20;100.00
19676;BME280;39539;52.202;9.876;2023-12-22T06:48:44;98696.00;;;3.11;100.00
19676;BME280;39539;52.202;9.876;2023-12-22T06:51:24;98706.13;;;2.88;100.00
19676;BME280;39539;52.202;9.876;2023-12-22T06:53:50;98687.63;;;2.63;100.00
19676;BME280;39539;52.202;9.876;2023-12-22T06:56:23;98698.94;;;2.37;100.00
19676;BME280;39539;52.202;9.876;2023-12-22T06:58:50;98695.13;;;2.19;100.00
19676;BME280;39539;52.202;9.876;2023-12-22T07:01:20;98680.81;;;2.02;100.00
19676;BME280;39539;52.202;9.876;2023-12-22T07:03:49;98680.78;;;1.89;100.00
19676;BME280;39539;52.202;9.876;2023-12-22T07:06:15;98702.94;;;1.79;100.00
19676;BME280;39539;52.202;9.876;2023-12-22T07:11:26;98750.31;;;1.91;100.00
19676;BME280;39539;52.202;9.876;2023-12-22T07:13:51;98744.66;;;1.94;100.00
19676;BME280;39539;52.202;9.876;2023-12-22T07:16:17;98744.88;;;1.93;100.00
19676;BME280;39539;52.202;9.876;2023-12-22T07:18:42;98748.09;;;1.95;100.00
19676;BME280;39539;52.202;9.876;2023-12-22T07:21:07;98745.47;;;1.95;100.00
19676;BME280;39539;52.202;9.876;2023-12-22T07:23:33;98717.50;;;2.02;100.00
19676;BME280;39539;52.202;9.876;2023-12-22T07:25:58;98711.03;;;2.18;100.00
19676;BME280;39539;52.202;9.876;2023-12-22T07:28:23;98711.06;;;2.24;100.00
19676;BME280;39539;52.202;9.876;2023-12-22T07:30:49;98711.06;;;2.44;100.00
19676;BME280;39539;52.202;9.876;2023-12-22T07:33:14;98714.84;;;2.68;100.00
19676;BME280;39539;52.202;9.876;2023-12-22T07:35:39;98725.09;;;2.97;100.00
19676;BME280;39539;52.202;9.876;2023-12-22T07:38:05;98727.06;;;3.14;100.00
19676;BME280;39539;52.202;9.876;2023-12-22T07:40:30;98727.00;;;3.28;100.00
19676;BME280;39539;52.202;9.876;2023-12-22T07:42:56;98732.41;;;3.40;100.00
19676;BME280;39539;52.202;9.876;2023-12-22T07:45:22;98739.25;;;3.47;100.00
19676;BME280;39539;52.202;9.876;2023-12-22T07:47:47;98754.00;;;3.55;100.00
19676;BME280;39539;52.202;9.876;2023-12-22T07:50:12;98757.94;;;3.71;100.00
19676;BME280;39539;52.202;9.876;2023-12-22T07:52:39;98786.78;;;3.84;100.00
19676;BME280;39539;52.202;9.876;2023-12-22T07:55:08;98735.00;;;3.91;100.00
19676;BME280;39539;52.202;9.876;2023-12-22T07:57:36;98756.97;;;4.03;100.00
19676;BME280;39539;52.202;9.876;2023-12-22T08:00:01;98787.66;;;4.10;100.00
19676;BME280;39539;52.202;9.876;2023-12-22T08:02:26;98799.16;;;4.15;100.00
19676;BME280;39539;52.202;9.876;2023-12-22T08:04:52;98819.19;;;4.16;100.00
19676;BME280;39539;52.202;9.876;2023-12-22T08:07:17;98815.97;;;4.14;100.00
19676;BME280;39539;52.202;9.876;2023-12-22T08:09:43;98806.28;;;4.08;100.00
19676;BME280;39539;52.202;9.876;2023-12-22T08:12:08;98795.56;;;4.10;100.00
19676;BME280;39539;52.202;9.876;2023-12-22T08:14:33;98786.31;;;4.32;100.00
19676;BME280;39539;52.202;9.876;2023-12-22T08:16:59;98807.69;;;4.42;100.00
19676;BME280;39539;52.202;9.876;2023-12-22T08:19:24;98827.88;;;4.48;100.00
19676;BME280;39539;52.202;9.876;2023-12-22T08:21:52;98829.03;;;4.59;100.00
19676;BME280;39539;52.202;9.876;2023-12-22T08:24:18;98831.59;;;4.66;100.00
19676;BME280;39539;52.202;9.876;2023-12-22T08:26:43;98824.06;;;4.76;100.00
19676;BME280;39539;52.202;9.876;2023-12-22T08:29:09;98820.81;;;4.74;100.00
19676;BME280;39539;52.202;9.876;2023-12-22T08:31:34;98821.78;;;4.80;100.00
19676;BME280;39539;52.202;9.876;2023-12-22T08:34:00;98824.78;;;4.83;100.00
19676;BME280;39539;52.202;9.876;2023-12-22T08:36:25;98824.53;;;4.91;100.00
19676;BME280;39539;52.202;9.876;2023-12-22T08:38:50;98827.47;;;5.02;100.00
19676;BME280;39539;52.202;9.876;2023-12-22T08:41:15;98831.44;;;5.11;100.00
19676;BME280;39539;52.202;9.876;2023-12-22T08:43:41;98850.34;;;5.26;100.00
19676;BME280;39539;52.202;9.876;2023-12-22T08:46:07;98848.03;;;5.36;100.00
19676;BME280;39539;52.202;9.876;2023-12-22T08:48:34;98857.84;;;5.48;99.88
19676;BME280;39539;52.202;9.876;2023-12-22T08:51:00;98854.25;;;5.42;98.38
19676;BME280;39539;52.202;9.876;2023-12-22T08:53:26;98849.22;;;5.59;99.02
19676;BME280;39539;52.202;9.876;2023-12-22T08:55:55;98849.44;;;5.76;98.32
19676;BME280;39539;52.202;9.876;2023-12-22T08:58:21;98832.81;;;5.75;97.51
19676;BME280;39539;52.202;9.876;2023-12-22T09:00:46;98845.41;;;5.73;97.86
19676;BME280;39539;52.202;9.876;2023-12-22T09:03:12;98837.78;;;5.83;97.48
19676;BME280;39539;52.202;9.876;2023-12-22T09:05:37;98850.47;;;5.93;97.86
19676;BME280;39539;52.202;9.876;2023-12-22T09:08:03;98859.19;;;5.94;97.80
19676;BME280;39539;52.202;9.876;2023-12-22T09:10:28;98850.47;;;5.93;95.56
19676;BME280;39539;52.202;9.876;2023-12-22T09:12:54;98859.56;;;5.97;96.38
19676;BME280;39539;52.202;9.876;2023-12-22T09:15:19;98837.91;;;5.89;94.11
19676;BME280;39539;52.202;9.876;2023-12-22T09:17:44;98840.88;;;5.80;95.28
19676;BME280;39539;52.202;9.876;2023-12-22T09:20:10;98856.00;;;5.85;95.33
19676;BME280;39539;52.202;9.876;2023-12-22T09:22:35;98846.13;;;5.99;94.30
19676;BME280;39539;52.202;9.876;2023-12-22T09:25:01;98848.78;;;5.99;94.50
19676;BME280;39539;52.202;9.876;2023-12-22T09:27:26;98844.94;;;6.13;91.65
19676;BME280;39539;52.202;9.876;2023-12-22T09:29:55;98840.19;;;6.34;92.08
19676;BME280;39539;52.202;9.876;2023-12-22T09:32:20;98836.47;;;6.53;91.02
19676;BME280;39539;52.202;9.876;2023-12-22T09:34:45;98835.25;;;6.79;90.52
19676;BME280;39539;52.202;9.876;2023-12-22T09:37:11;98839.97;;;6.77;90.25
19676;BME280;39539;52.202;9.876;2023-12-22T09:39:36;98829.72;;;6.57;90.26
19676;BME280;39539;52.202;9.876;2023-12-22T09:42:02;98824.28;;;6.40;90.48
19676;BME280;39539;52.202;9.876;2023-12-22T09:44:31;98825.81;;;6.18;93.28
19676;BME280;39539;52.202;9.876;2023-12-22T09:46:59;98807.03;;;5.96;93.03
19676;BME280;39539;52.202;9.876;2023-12-22T09:49:26;98811.88;;;5.80;93.76
19676;BME280;39539;52.202;9.876;2023-12-22T09:51:52;98818.84;;;5.75;93.37
19676;BME280;39539;52.202;9.876;2023-12-22T09:54:19;98807.91;;;5.71;95.01
19676;BME280;39539;52.202;9.876;2023-12-22T09:56:47;98829.00;;;5.71;96.58
19676;BME280;39539;52.202;9.876;2023-12-22T09:59:13;98803.66;;;5.70;97.41
19676;BME280;39539;52.202;9.876;2023-12-22T10:01:43;98808.84;;;5.77;96.02
19676;BME280;39539;52.202;9.876;2023-12-22T10:04:11;98819.41;;;5.77;97.02
19676;BME280;39539;52.202;9.876;2023-12-22T10:06:36;98808.06;;;5.76;97.36
19676;BME280;39539;52.202;9.876;2023-12-22T10:09:02;98817.78;;;5.76;97.69
19676;BME280;39539;52.202;9.876;2023-12-22T10:11:32;98824.59;;;5.83;99.10
19676;BME280;39539;52.202;9.876;2023-12-22T10:14:00;98808.06;;;5.76;100.00
19676;BME280;39539;52.202;9.876;2023-12-22T10:16:27;98807.00;;;5.77;100.00
19676;BME280;39539;52.202;9.876;2023-12-22T10:18:54;98799.78;;;5.73;100.00
19676;BME280;39539;52.202;9.876;2023-12-22T10:21:20;98796.47;;;5.77;100.00
19676;BME280;39539;52.202;9.876;2023-12-22T10:23:45;98801.63;;;5.72;100.00
19676;BME280;39539;52.202;9.876;2023-12-22T10:26:11;98795.16;;;5.68;100.00
19676;BME280;39539;52.202;9.876;2023-12-22T10:28:36;98767.22;;;5.67;100.00
19676;BME280;39539;52.202;9.876;2023-12-22T10:31:02;98777.75;;;5.67;100.00
19676;BME280;39539;52.202;9.876;2023-12-22T10:33:32;98761.03;;;5.73;100.00
19676;BME280;39539;52.202;9.876;2023-12-22T10:35:59;98764.34;;;5.69;100.00
19676;BME280;39539;52.202;9.876;2023-12-22T10:38:32;98773.63;;;5.71;100.00
19676;BME280;39539;52.202;9.876;2023-12-22T10:40:58;98754.19;;;5.72;100.00
19676;BME280;39539;52.202;9.876;2023-12-22T10:43:24;98748.16;;;5.83;100.00
19676;BME280;39539;52.202;9.876;2023-12-22T10:45:52;98742.28;;;5.81;100.00
19676;BME280;39539;52.202;9.876;2023-12-22T10:48:17;98735.09;;;5.89;100.00
19676;BME280;39539;52.202;9.876;2023-12-22T10:50:43;98740.94;;;5.91;100.00
19676;BME280;39539;52.202;9.876;2023-12-22T10:53:10;98728.72;;;5.96;100.00
19676;BME280;39539;52.202;9.876;2023-12-22T10:55:36;98708.88;;;5.94;100.00
19676;BME280;39539;52.202;9.876;2023-12-22T10:58:05;98703.16;;;5.97;100.00
19676;BME280;39539;52.202;9.876;2023-12-22T11:00:35;98696.19;;;6.14;100.00
19676;BME280;39539;52.202;9.876;2023-12-22T11:03:06;98712.41;;;6.18;100.00
19676;BME280;39539;52.202;9.876;2023-12-22T11:05:36;98718.47;;;6.18;100.00
19676;BME280;39539;52.202;9.876;2023-12-22T11:08:02;98722.84;;;6.24;100.00
19676;BME280;39539;52.202;9.876;2023-12-22T11:10:30;98712.63;;;6.28;100.00
19676;BME280;39539;52.202;9.876;2023-12-22T11:12:57;98724.00;;;6.28;100.00
19676;BME280;39539;52.202;9.876;2023-12-22T11:15:24;98750.03;;;6.37;100.00
19676;BME280;39539;52.202;9.876;2023-12-22T11:17:51;98734.78;;;6.39;100.00
19676;BME280;39539;52.202;9.876;2023-12-22T11:20:17;98738.34;;;6.33;100.00
19676;BME280;39539;52.202;9.876;2023-12-22T11:22:44;98748.31;;;6.30;100.00
19676;BME280;39539;52.202;9.876;2023-12-22T11:25:10;98739.25;;;6.26;100.00
19676;BME280;39539;52.202;9.876;2023-12-22T11:27:37;98728.69;;;6.26;100.00
19676;BME280;39539;52.202;9.876;2023-12-22T11:30:04;98713.06;;;6.13;100.00
19676;BME280;39539;52.202;9.876;2023-12-22T11:32:33;98736.28;;;6.35;100.00
19676;BME280;39539;52.202;9.876;2023-12-22T11:34:59;98731.00;;;6.35;100.00
19676;BME280;39539;52.202;9.876;2023-12-22T11:37:25;98737.41;;;6.39;100.00
19676;BME280;39539;52.202;9.876;2023-12-22T11:39:51;98723.22;;;6.40;100.00
19676;BME280;39539;52.202;9.876;2023-12-22T11:42:20;98717.47;;;6.43;100.00
19676;BME280;39539;52.202;9.876;2023-12-22T11:44:46;98729.84;;;6.42;100.00
19676;BME280;39539;52.202;9.876;2023-12-22T11:47:13;98729.50;;;6.39;100.00
19676;BME280;39539;52.202;9.876;2023-12-22T11:49:39;98715.97;;;6.47;100.00
19676;BME280;39539;52.202;9.876;2023-12-22T11:52:15;98737.34;;;6.57;100.00
19676;BME280;39539;52.202;9.876;2023-12-22T11:59:54;98711.75;;;6.69;99.29
19676;BME280;39539;52.202;9.876;2023-12-22T12:02:21;98720.25;;;6.71;98.33
19676;BME280;39539;52.202;9.876;2023-12-22T12:04:53;98709.81;;;6.77;99.63
19676;BME280;39539;52.202;9.876;2023-12-22T12:07:38;98704.03;;;6.68;97.31
19676;BME280;39539;52.202;9.876;2023-12-22T12:10:08;98714.72;;;6.73;97.49
19676;BME280;39539;52.202;9.876;2023-12-22T12:12:36;98735.28;;;6.71;98.32
19676;BME280;39539;52.202;9.876;2023-12-22T12:15:13;98737.69;;;6.72;98.89
19676;BME280;39539;52.202;9.876;2023-12-22T12:17:42;98729.66;;;6.67;98.60
19676;BME280;39539;52.202;9.876;2023-12-22T12:20:11;98723.81;;;6.77;99.38
19676;BME280;39539;52.202;9.876;2023-12-22T12:22:38;98723.81;;;6.77;99.04
19676;BME280;39539;52.202;9.876;2023-12-22T12:25:08;98729.44;;;6.81;99.92
19676;BME280;39539;52.202;9.876;2023-12-22T12:27:37;98721.16;;;6.77;100.00
19676;BME280;39539;52.202;9.876;2023-12-22T12:30:10;98719.09;;;6.67;100.00
19676;BME280;39539;52.202;9.876;2023-12-22T12:32:36;98730.00;;;6.71;100.00
19676;BME280;39539;52.202;9.876;2023-12-22T12:35:02;98714.97;;;6.71;100.00
19676;BME280;39539;52.202;9.876;2023-12-22T12:37:29;98706.47;;;6.69;100.00
19676;BME280;39539;52.202;9.876;2023-12-22T12:39:57;98711.06;;;6.74;100.00
19676;BME280;39539;52.202;9.876;2023-12-22T12:42:28;98705.53;;;6.75;100.00
19676;BME280;39539;52.202;9.876;2023-12-22T12:44:54;98688.13;;;6.63;100.00
19676;BME280;39539;52.202;9.876;2023-12-22T12:47:20;98685.94;;;6.71;100.00
19676;BME280;39539;52.202;9.876;2023-12-22T12:49:45;98690.41;;;6.71;100.00
19676;BME280;39539;52.202;9.876;2023-12-22T12:52:14;98684.09;;;6.72;100.00
19676;BME280;39539;52.202;9.876;2023-12-22T12:54:40;98698.53;;;6.81;100.00
19676;BME280;39539;52.202;9.876;2023-12-22T12:57:06;98716.22;;;6.81;99.87
19676;BME280;39539;52.202;9.876;2023-12-22T12:59:31;98703.03;;;6.81;100.00
19676;BME280;39539;52.202;9.876;2023-12-22T13:01:56;98703.47;;;6.78;99.52
19676;BME280;39539;52.202;9.876;2023-12-22T13:04:23;98722.19;;;6.76;100.00
19676;BME280;39539;52.202;9.876;2023-12-22T13:06:49;98720.13;;;6.78;100.00